DRK501 VNKT-VQPR
Flight info
| Callsign | DRK501 |
|---|---|
| Flight time | 0h 38m |
| Altitude | 33000 |
| Route | IGRIS1E KIMTI G348 SUBSU DCT TAKTI DCT PRO |
| Aircraft | A319/M-SDE3FGHIRWY/LB1 |
Departure
| Time | 2026-05-05 09:21 |
|---|---|
| Airport | Tribhuvan International Airport (VNKT) |
Arrival
| Time | 2026-05-05 10:00 |
|---|---|
| Airport | Paro International Airport (VQPR) |
| Time | Latitude | Longitude | Altitude | Speed | Heading |
|---|---|---|---|---|---|
| 2026-05-05 09:11 | 27.69994 | 85.35830 | 4374 ft | 0 kts | 292° |
| 2026-05-05 09:12 | 27.69991 | 85.35839 | 4374 ft | 4 kts | 291° |
| 2026-05-05 09:12 | 27.69982 | 85.35867 | 4364 ft | 4 kts | 286° |
| 2026-05-05 09:12 | 27.69976 | 85.35897 | 4361 ft | 4 kts | 277° |
| 2026-05-05 09:13 | 27.69976 | 85.35926 | 4366 ft | 4 kts | 251° |
| 2026-05-05 09:13 | 27.69986 | 85.35944 | 4354 ft | 1 kts | 202° |
| 2026-05-05 09:13 | 27.69987 | 85.35944 | 4354 ft | 0 kts | 202° |
| 2026-05-05 09:15 | 27.69985 | 85.35944 | 4354 ft | 1 kts | 202° |
| 2026-05-05 09:15 | 27.69969 | 85.35937 | 4363 ft | 3 kts | 202° |
| 2026-05-05 09:16 | 27.69955 | 85.35930 | 4354 ft | 4 kts | 202° |
| 2026-05-05 09:16 | 27.69911 | 85.35910 | 4372 ft | 6 kts | 201° |
| 2026-05-05 09:16 | 27.69880 | 85.35896 | 4371 ft | 8 kts | 201° |
| 2026-05-05 09:16 | 27.69813 | 85.35866 | 4370 ft | 12 kts | 201° |
| 2026-05-05 09:17 | 27.69722 | 85.35825 | 4367 ft | 16 kts | 202° |
| 2026-05-05 09:17 | 27.69608 | 85.35773 | 4352 ft | 19 kts | 202° |
| 2026-05-05 09:17 | 27.69472 | 85.35710 | 4361 ft | 23 kts | 202° |
| 2026-05-05 09:17 | 27.69313 | 85.35635 | 4357 ft | 27 kts | 202° |
| 2026-05-05 09:18 | 27.69160 | 85.35566 | 4352 ft | 15 kts | 204° |
| 2026-05-05 09:18 | 27.69078 | 85.35570 | 4349 ft | 14 kts | 136° |
| 2026-05-05 09:18 | 27.69008 | 85.35619 | 4343 ft | 14 kts | 199° |
| 2026-05-05 09:18 | 27.68906 | 85.35573 | 4344 ft | 17 kts | 202° |
| 2026-05-05 09:19 | 27.68782 | 85.35515 | 4341 ft | 22 kts | 202° |
| 2026-05-05 09:19 | 27.68632 | 85.35447 | 4338 ft | 24 kts | 202° |
| 2026-05-05 09:19 | 27.68467 | 85.35373 | 4336 ft | 27 kts | 202° |
| 2026-05-05 09:19 | 27.68331 | 85.35300 | 4334 ft | 18 kts | 221° |
| 2026-05-05 09:20 | 27.68236 | 85.35197 | 4333 ft | 20 kts | 199° |
| 2026-05-05 09:20 | 27.68178 | 85.35236 | 4333 ft | 14 kts | 34° |
| 2026-05-05 09:20 | 27.68242 | 85.35268 | 4333 ft | 16 kts | 22° |
| 2026-05-05 09:20 | 27.68574 | 85.35420 | 4336 ft | 85 kts | 21° |
| 2026-05-05 09:21 | 27.69309 | 85.35751 | 4357 ft | 140 kts | 22° |
| 2026-05-05 09:21 | 27.70331 | 85.36216 | 4537 ft | 168 kts | 19° |
| 2026-05-05 09:21 | 27.71426 | 85.36722 | 5015 ft | 176 kts | 20° |
| 2026-05-05 09:21 | 27.72580 | 85.37398 | 5407 ft | 196 kts | 41° |
| 2026-05-05 09:22 | 27.73204 | 85.38776 | 5788 ft | 214 kts | 85° |
| 2026-05-05 09:22 | 27.72857 | 85.40443 | 6183 ft | 230 kts | 127° |
| 2026-05-05 09:22 | 27.71584 | 85.41555 | 6758 ft | 236 kts | 152° |
| 2026-05-05 09:22 | 27.70136 | 85.42458 | 7485 ft | 241 kts | 152° |
| 2026-05-05 09:23 | 27.68639 | 85.43387 | 8114 ft | 250 kts | 152° |
| 2026-05-05 09:23 | 27.67099 | 85.44402 | 8616 ft | 268 kts | 143° |
| 2026-05-05 09:23 | 27.65961 | 85.46152 | 8971 ft | 291 kts | 111° |
| 2026-05-05 09:23 | 27.65273 | 85.48338 | 9632 ft | 299 kts | 109° |
| 2026-05-05 09:24 | 27.64569 | 85.50584 | 10194 ft | 313 kts | 109° |
| 2026-05-05 09:24 | 27.63801 | 85.52983 | 10428 ft | 337 kts | 110° |
| 2026-05-05 09:24 | 27.62966 | 85.55545 | 10641 ft | 360 kts | 110° |
| 2026-05-05 09:24 | 27.62074 | 85.58264 | 10970 ft | 376 kts | 110° |
| 2026-05-05 09:25 | 27.61158 | 85.61051 | 11568 ft | 382 kts | 110° |
| 2026-05-05 09:25 | 27.60224 | 85.63886 | 12186 ft | 388 kts | 110° |
| 2026-05-05 09:25 | 27.59278 | 85.66754 | 12827 ft | 393 kts | 110° |
| 2026-05-05 09:25 | 27.58322 | 85.69659 | 13473 ft | 397 kts | 110° |
| 2026-05-05 09:26 | 27.57357 | 85.72597 | 14083 ft | 402 kts | 110° |
| 2026-05-05 09:26 | 27.56380 | 85.75569 | 14673 ft | 406 kts | 110° |
| 2026-05-05 09:26 | 27.55392 | 85.78569 | 15274 ft | 410 kts | 111° |
| 2026-05-05 09:26 | 27.54396 | 85.81590 | 15861 ft | 413 kts | 111° |
| 2026-05-05 09:27 | 27.53388 | 85.84638 | 16458 ft | 417 kts | 111° |
| 2026-05-05 09:27 | 27.52370 | 85.87716 | 16992 ft | 421 kts | 111° |
| 2026-05-05 09:27 | 27.51443 | 85.90823 | 17581 ft | 426 kts | 105° |
| 2026-05-05 09:27 | 27.50931 | 85.94128 | 18156 ft | 431 kts | 96° |
| 2026-05-05 09:28 | 27.50787 | 85.97528 | 18666 ft | 436 kts | 93° |
| 2026-05-05 09:28 | 27.50666 | 86.00947 | 19125 ft | 439 kts | 93° |
| 2026-05-05 09:28 | 27.50536 | 86.04402 | 19587 ft | 443 kts | 93° |
| 2026-05-05 09:28 | 27.50401 | 86.07885 | 20027 ft | 447 kts | 94° |
| 2026-05-05 09:29 | 27.50264 | 86.11395 | 20457 ft | 451 kts | 94° |
| 2026-05-05 09:29 | 27.50123 | 86.14939 | 20893 ft | 455 kts | 94° |
| 2026-05-05 09:29 | 27.49982 | 86.18512 | 21331 ft | 459 kts | 94° |
| 2026-05-05 09:29 | 27.49840 | 86.22118 | 21738 ft | 463 kts | 94° |
| 2026-05-05 09:30 | 27.49697 | 86.25756 | 22125 ft | 467 kts | 94° |
| 2026-05-05 09:30 | 27.49555 | 86.29424 | 22533 ft | 470 kts | 94° |
| 2026-05-05 09:30 | 27.49411 | 86.33110 | 22919 ft | 473 kts | 94° |
| 2026-05-05 09:30 | 27.49275 | 86.36831 | 23344 ft | 477 kts | 94° |
| 2026-05-05 09:31 | 27.49142 | 86.40578 | 23715 ft | 480 kts | 94° |
| 2026-05-05 09:31 | 27.49014 | 86.44347 | 24017 ft | 483 kts | 94° |
| 2026-05-05 09:31 | 27.48879 | 86.48135 | 24340 ft | 485 kts | 94° |
| 2026-05-05 09:31 | 27.48748 | 86.51939 | 24682 ft | 487 kts | 94° |
| 2026-05-05 09:32 | 27.48617 | 86.55766 | 24967 ft | 489 kts | 94° |
| 2026-05-05 09:32 | 27.48491 | 86.59599 | 25273 ft | 491 kts | 94° |
| 2026-05-05 09:32 | 27.48360 | 86.63445 | 25555 ft | 492 kts | 94° |
| 2026-05-05 09:32 | 27.48223 | 86.67301 | 25822 ft | 493 kts | 94° |
| 2026-05-05 09:33 | 27.48084 | 86.71164 | 26092 ft | 495 kts | 94° |
| 2026-05-05 09:33 | 27.47944 | 86.75047 | 26357 ft | 497 kts | 94° |
| 2026-05-05 09:33 | 27.47626 | 86.78916 | 26601 ft | 496 kts | 104° |
| 2026-05-05 09:33 | 27.46578 | 86.82598 | 26895 ft | 493 kts | 116° |
| 2026-05-05 09:34 | 27.45180 | 86.86132 | 27173 ft | 495 kts | 117° |
| 2026-05-05 09:34 | 27.43759 | 86.89673 | 27358 ft | 497 kts | 117° |
| 2026-05-05 09:34 | 27.42341 | 86.93179 | 27559 ft | 500 kts | 117° |
| 2026-05-05 09:34 | 27.40870 | 86.96795 | 27810 ft | 503 kts | 117° |
| 2026-05-05 09:35 | 27.39410 | 87.00378 | 28057 ft | 504 kts | 117° |
| 2026-05-05 09:35 | 27.36482 | 87.07574 | 28650 ft | 507 kts | 117° |
| 2026-05-05 09:35 | 27.35018 | 87.11182 | 29050 ft | 505 kts | 117° |
| 2026-05-05 09:36 | 27.33563 | 87.14774 | 29437 ft | 504 kts | 117° |
| 2026-05-05 09:36 | 27.32128 | 87.18307 | 29742 ft | 503 kts | 118° |
| 2026-05-05 09:36 | 27.30434 | 87.21735 | 30102 ft | 500 kts | 125° |
| 2026-05-05 09:36 | 27.28605 | 87.25058 | 30428 ft | 499 kts | 125° |
| 2026-05-05 09:37 | 27.26778 | 87.28369 | 30752 ft | 499 kts | 125° |
| 2026-05-05 09:37 | 27.24949 | 87.31680 | 31049 ft | 499 kts | 125° |
| 2026-05-05 09:37 | 27.23118 | 87.34992 | 31292 ft | 500 kts | 126° |
| 2026-05-05 09:37 | 27.21284 | 87.38317 | 31526 ft | 501 kts | 126° |
| 2026-05-05 09:38 | 27.19449 | 87.41646 | 31780 ft | 501 kts | 126° |
| 2026-05-05 09:38 | 27.17617 | 87.44974 | 32116 ft | 501 kts | 126° |
| 2026-05-05 09:38 | 27.15783 | 87.48296 | 32440 ft | 500 kts | 126° |
| 2026-05-05 09:38 | 27.13950 | 87.51610 | 32679 ft | 501 kts | 127° |
| 2026-05-05 09:39 | 27.12103 | 87.54944 | 32884 ft | 503 kts | 127° |
| 2026-05-05 09:39 | 27.10255 | 87.58277 | 33025 ft | 504 kts | 127° |
| 2026-05-05 09:39 | 27.06541 | 87.64969 | 33004 ft | 505 kts | 127° |
| 2026-05-05 09:40 | 27.02821 | 87.71659 | 32992 ft | 505 kts | 127° |
| 2026-05-05 09:40 | 26.99096 | 87.78341 | 33017 ft | 506 kts | 127° |
| 2026-05-05 09:41 | 26.95363 | 87.85038 | 32978 ft | 507 kts | 127° |
| 2026-05-05 09:41 | 26.91626 | 87.91737 | 32983 ft | 506 kts | 127° |
| 2026-05-05 09:42 | 26.87894 | 87.98410 | 32982 ft | 506 kts | 127° |
| 2026-05-05 09:42 | 26.84159 | 88.05078 | 32912 ft | 505 kts | 128° |
| 2026-05-05 09:43 | 26.80416 | 88.11754 | 32901 ft | 507 kts | 128° |
| 2026-05-05 09:43 | 26.76659 | 88.18442 | 32907 ft | 508 kts | 128° |
| 2026-05-05 09:44 | 26.73238 | 88.25388 | 32875 ft | 518 kts | 114° |
| 2026-05-05 09:44 | 26.72327 | 88.29304 | 32872 ft | 524 kts | 102° |
| 2026-05-05 09:44 | 26.72113 | 88.33389 | 32870 ft | 529 kts | 89° |
| 2026-05-05 09:45 | 26.72614 | 88.37466 | 32870 ft | 531 kts | 76° |
| 2026-05-05 09:45 | 26.73812 | 88.41366 | 32865 ft | 530 kts | 64° |
| 2026-05-05 09:45 | 26.77533 | 88.48457 | 32890 ft | 529 kts | 57° |
| 2026-05-05 09:46 | 26.81370 | 88.55486 | 32903 ft | 529 kts | 57° |
| 2026-05-05 09:46 | 26.83287 | 88.59000 | 32735 ft | 528 kts | 57° |
| 2026-05-05 09:46 | 26.85202 | 88.62507 | 31902 ft | 528 kts | 57° |
| 2026-05-05 09:47 | 26.87118 | 88.66019 | 31140 ft | 529 kts | 57° |
| 2026-05-05 09:47 | 26.89030 | 88.69528 | 30372 ft | 528 kts | 57° |
| 2026-05-05 09:47 | 26.90941 | 88.73039 | 29486 ft | 527 kts | 57° |
| 2026-05-05 09:47 | 26.92820 | 88.76496 | 28506 ft | 526 kts | 57° |
| 2026-05-05 09:48 | 26.94727 | 88.80001 | 27494 ft | 527 kts | 57° |
| 2026-05-05 09:48 | 26.96508 | 88.83588 | 26457 ft | 528 kts | 64° |
| 2026-05-05 09:48 | 26.97854 | 88.87399 | 25227 ft | 524 kts | 72° |
| 2026-05-05 09:48 | 26.98726 | 88.91370 | 23623 ft | 527 kts | 83° |
| 2026-05-05 09:49 | 26.99130 | 88.95412 | 22303 ft | 516 kts | 85° |
| 2026-05-05 09:49 | 26.99513 | 88.99363 | 21126 ft | 504 kts | 85° |
| 2026-05-05 09:49 | 26.99920 | 89.03228 | 20010 ft | 493 kts | 84° |
| 2026-05-05 09:49 | 27.00335 | 89.06998 | 18945 ft | 482 kts | 83° |
| 2026-05-05 09:50 | 27.00744 | 89.10688 | 17903 ft | 472 kts | 83° |
| 2026-05-05 09:50 | 27.01137 | 89.14300 | 16772 ft | 461 kts | 83° |
| 2026-05-05 09:50 | 27.01514 | 89.17838 | 15758 ft | 452 kts | 83° |
| 2026-05-05 09:50 | 27.01878 | 89.21322 | 15249 ft | 448 kts | 83° |
| 2026-05-05 09:51 | 27.02235 | 89.24781 | 14929 ft | 442 kts | 83° |
| 2026-05-05 09:51 | 27.02577 | 89.28115 | 14620 ft | 419 kts | 83° |
| 2026-05-05 09:51 | 27.02899 | 89.31271 | 14321 ft | 396 kts | 84° |
| 2026-05-05 09:51 | 27.03204 | 89.34263 | 14028 ft | 377 kts | 83° |
| 2026-05-05 09:52 | 27.03496 | 89.37123 | 13719 ft | 360 kts | 83° |
| 2026-05-05 09:52 | 27.03774 | 89.39847 | 13373 ft | 344 kts | 83° |
| 2026-05-05 09:52 | 27.04040 | 89.42465 | 13045 ft | 331 kts | 83° |
| 2026-05-05 09:52 | 27.04414 | 89.44966 | 12718 ft | 320 kts | 73° |
| 2026-05-05 09:53 | 27.05255 | 89.47221 | 12399 ft | 310 kts | 58° |
| 2026-05-05 09:53 | 27.06505 | 89.49127 | 12076 ft | 296 kts | 45° |
| 2026-05-05 09:53 | 27.08038 | 89.50597 | 11753 ft | 285 kts | 31° |
| 2026-05-05 09:53 | 27.09753 | 89.51619 | 11446 ft | 273 kts | 19° |
| 2026-05-05 09:54 | 27.11548 | 89.52194 | 11157 ft | 264 kts | 6° |
| 2026-05-05 09:54 | 27.13336 | 89.52406 | 10963 ft | 256 kts | 2° |
| 2026-05-05 09:54 | 27.15079 | 89.52583 | 10884 ft | 248 kts | 4° |
| 2026-05-05 09:54 | 27.16784 | 89.52740 | 10778 ft | 244 kts | 0° |
| 2026-05-05 09:55 | 27.18456 | 89.52768 | 10743 ft | 237 kts | 358° |
| 2026-05-05 09:55 | 27.20099 | 89.52708 | 10619 ft | 236 kts | 356° |
| 2026-05-05 09:55 | 27.21736 | 89.52619 | 10459 ft | 236 kts | 356° |
| 2026-05-05 09:55 | 27.23368 | 89.52534 | 10309 ft | 232 kts | 359° |
| 2026-05-05 09:56 | 27.24986 | 89.52673 | 10185 ft | 227 kts | 12° |
| 2026-05-05 09:56 | 27.26439 | 89.53080 | 10134 ft | 212 kts | 17° |
| 2026-05-05 09:56 | 27.27844 | 89.53548 | 9897 ft | 210 kts | 17° |
| 2026-05-05 09:56 | 27.29222 | 89.54029 | 9630 ft | 209 kts | 15° |
| 2026-05-05 09:57 | 27.30652 | 89.54095 | 9333 ft | 203 kts | 344° |
| 2026-05-05 09:57 | 27.31815 | 89.53301 | 9141 ft | 193 kts | 314° |
| 2026-05-05 09:57 | 27.32451 | 89.52036 | 9087 ft | 187 kts | 278° |
| 2026-05-05 09:57 | 27.32538 | 89.50553 | 8761 ft | 193 kts | 265° |
| 2026-05-05 09:58 | 27.32695 | 89.49080 | 8575 ft | 187 kts | 288° |
| 2026-05-05 09:58 | 27.33437 | 89.47910 | 8448 ft | 186 kts | 315° |
| 2026-05-05 09:58 | 27.34421 | 89.47018 | 8301 ft | 179 kts | 325° |
| 2026-05-05 09:58 | 27.35526 | 89.46419 | 8217 ft | 174 kts | 338° |
| 2026-05-05 09:59 | 27.36669 | 89.45963 | 8057 ft | 176 kts | 340° |
| 2026-05-05 09:59 | 27.37747 | 89.45369 | 7819 ft | 171 kts | 309° |
| 2026-05-05 09:59 | 27.38301 | 89.44219 | 7734 ft | 161 kts | 294° |
| 2026-05-05 09:59 | 27.38728 | 89.43546 | 7582 ft | 163 kts | 314° |
| 2026-05-05 10:00 | 27.40009 | 89.42676 | 7337 ft | 142 kts | 330° |
| 2026-05-05 10:00 | 27.40507 | 89.42354 | 7337 ft | 39 kts | 330° |
| 2026-05-05 10:00 | 27.40641 | 89.42271 | 7338 ft | 21 kts | 332° |
| 2026-05-05 10:00 | 27.40673 | 89.42188 | 7337 ft | 11 kts | 240° |
| 2026-05-05 10:01 | 27.40656 | 89.42161 | 7335 ft | 7 kts | 232° |
| 2026-05-05 10:01 | 27.40639 | 89.42127 | 7333 ft | 4 kts | 239° |
| 2026-05-05 10:01 | 27.40626 | 89.42103 | 7333 ft | 1 kts | 241° |
| 2026-05-05 10:01 | 27.40626 | 89.42102 | 7333 ft | 0 kts | 241° |